Time;durP1;ratioP1;P1;durP2;ratioP2;P2;SDS_P1;SDS_P2;PMS_P1;PMS_P2;Temp;Humidity;BMP_temperature;BMP_pressure;BME280_temperature;BME280_humidity;BME280_pressure;Samples;Min_cycle;Max_cycle;Signal;HPM_P1;HPM_P2
2023/10/09 00:03:00;;;;;;;26.90;11.65;;;16.00;99.90;;;;;;5052800;28;20043;-51
2023/10/09 00:08:05;;;;;;;21.13;10.82;;;16.00;99.90;;;;;;5072323;28;20496;-53
2023/10/09 00:10:44;;;;;;;26.48;12.30;;;16.00;99.90;;;;;;5072400;28;20025;-52
2023/10/09 00:13:10;;;;;;;22.73;11.48;;;16.00;99.90;;;;;;5072350;28;20036;-53
2023/10/09 00:15:36;;;;;;;34.17;12.60;;;16.00;99.90;;;;;;5072133;28;20021;-52
2023/10/09 00:18:05;;;;;;;21.75;11.05;;;16.00;99.90;;;;;;5072287;28;20107;-53
2023/10/09 00:20:42;;;;;;;23.40;10.82;;;16.00;99.90;;;;;;5071235;28;20021;-56
2023/10/09 00:23:15;;;;;;;27.38;11.70;;;16.00;99.90;;;;;;5071526;28;20432;-47
2023/10/09 00:26:05;;;;;;;30.42;12.93;;;16.00;99.90;;;;;;5071778;28;20465;-54
2023/10/09 00:28:30;;;;;;;22.60;11.50;;;16.00;99.90;;;;;;5071266;28;20477;-53
2023/10/09 00:30:56;;;;;;;22.50;11.15;;;16.00;99.90;;;;;;5072288;28;20072;-52
2023/10/09 00:33:22;;;;;;;20.92;10.80;;;16.00;99.90;;;;;;5071421;28;20104;-54
2023/10/09 00:35:54;;;;;;;24.00;12.15;;;16.00;99.90;;;;;;5071718;28;20028;-51
2023/10/09 00:40:56;;;;;;;24.63;11.25;;;16.10;99.90;;;;;;5072364;28;20115;-54
2023/10/09 00:43:28;;;;;;;22.38;11.10;;;16.10;99.90;;;;;;5071284;28;20036;-53
2023/10/09 00:45:54;;;;;;;27.80;12.00;;;16.10;99.90;;;;;;5070956;28;20397;-41
2023/10/09 00:48:30;;;;;;;24.85;12.05;;;16.10;99.90;;;;;;5072199;28;20020;-39
2023/10/09 00:51:00;;;;;;;26.03;11.27;;;16.10;99.90;;;;;;5053252;28;20052;-38
2023/10/09 00:53:33;;;;;;;21.25;11.13;;;16.10;99.90;;;;;;5066389;28;20020;-41
2023/10/09 00:56:20;;;;;;;33.85;12.25;;;16.10;99.90;;;;;;5070745;28;20032;-52
2023/10/09 00:59:30;;;;;;;21.67;10.75;;;16.20;99.90;;;;;;5066589;28;20028;-53
2023/10/09 01:01:40;;;;;;;22.27;11.02;;;16.20;99.90;;;;;;5061253;28;20028;-58
2023/10/09 01:04:17;;;;;;;24.13;11.43;;;16.20;99.90;;;;;;5071656;28;20056;-52
2023/10/09 01:06:47;;;;;;;19.92;10.90;;;16.20;99.90;;;;;;5071012;28;20173;-54
2023/10/09 01:09:14;;;;;;;26.65;12.15;;;16.20;99.90;;;;;;5071438;28;20025;-54
2023/10/09 01:11:48;;;;;;;16.58;9.43;;;16.30;99.90;;;;;;5072112;28;20031;-50
2023/10/09 01:14:15;;;;;;;19.83;11.60;;;16.30;99.90;;;;;;5057679;28;20017;-52
2023/10/09 01:16:42;;;;;;;24.38;10.48;;;16.30;99.90;;;;;;5075330;28;20408;-53
2023/10/09 01:19:20;;;;;;;17.93;9.93;;;16.30;99.90;;;;;;5076063;28;20017;-53
2023/10/09 01:21:47;;;;;;;25.30;11.18;;;16.30;99.90;;;;;;5057074;28;20287;-52
2023/10/09 01:24:15;;;;;;;20.40;7.70;;;16.30;99.90;;;;;;5075044;28;20024;-51
2023/10/09 01:26:49;;;;;;;24.05;10.60;;;16.30;99.90;;;;;;5074886;28;20103;-54
2023/10/09 01:29:22;;;;;;;21.80;10.98;;;16.40;99.90;;;;;;5071912;28;20032;-53
2023/10/09 01:31:56;;;;;;;20.45;10.15;;;16.40;99.90;;;;;;5075455;28;20508;-53
2023/10/09 01:35:14;;;;;;;15.88;8.73;;;16.40;99.90;;;;;;5072613;28;20114;-41
2023/10/09 01:37:19;;;;;;;21.40;9.70;;;16.40;99.90;;;;;;5077388;28;20615;-39
2023/10/09 01:39:58;;;;;;;19.30;9.55;;;16.40;99.90;;;;;;5070492;28;20016;-39
2023/10/09 01:42:44;;;;;;;19.52;9.43;;;16.40;99.90;;;;;;5074134;28;20501;-38
2023/10/09 01:45:11;;;;;;;16.98;8.77;;;16.40;99.90;;;;;;5075680;28;20377;-54
2023/10/09 01:47:40;;;;;;;19.40;10.02;;;16.40;99.90;;;;;;5074496;28;20029;-52
2023/10/09 01:50:20;;;;;;;16.40;7.93;;;16.50;99.90;;;;;;5075452;28;20158;-51
2023/10/09 01:52:45;;;;;;;19.10;9.57;;;16.50;99.90;;;;;;5074945;28;20046;-52
2023/10/09 01:55:55;;;;;;;19.08;9.45;;;16.40;99.90;;;;;;5074619;28;20058;-53
2023/10/09 01:58:05;;;;;;;20.30;9.25;;;16.50;99.90;;;;;;5072182;28;20158;-53
2023/10/09 02:00:42;;;;;;;16.60;9.43;;;16.50;99.90;;;;;;5075389;28;20444;-51
2023/10/09 02:03:12;;;;;;;18.30;9.98;;;16.50;99.90;;;;;;5075602;28;20016;-51
2023/10/09 02:05:39;;;;;;;20.08;9.18;;;16.50;99.90;;;;;;5075224;28;20043;-39
2023/10/09 02:08:05;;;;;;;20.20;9.70;;;16.50;99.90;;;;;;5073832;28;20029;-39
2023/10/09 02:10:32;;;;;;;28.25;9.73;;;16.50;99.90;;;;;;5074791;28;20028;-40
2023/10/09 02:13:10;;;;;;;25.08;10.38;;;16.50;99.90;;;;;;5075034;28;20028;-41
2023/10/09 02:19:29;;;;;;;13.90;8.25;;;16.50;99.90;;;;;;5062177;28;20033;-39
2023/10/09 02:26:19;;;;;;;16.40;9.63;;;16.40;99.90;;;;;;5074338;28;20082;-39
2023/10/09 02:28:53;;;;;;;22.67;9.15;;;16.50;99.90;;;;;;5074440;28;20025;-40
2023/10/09 02:31:21;;;;;;;18.73;8.88;;;16.50;99.90;;;;;;5074258;28;20027;-38
2023/10/09 02:33:50;;;;;;;16.95;8.30;;;16.50;99.90;;;;;;5074560;28;20024;-41
2023/10/09 02:36:15;;;;;;;12.27;7.60;;;16.50;99.90;;;;;;5074458;28;20039;-38
2023/10/09 02:38:42;;;;;;;15.20;7.65;;;16.50;99.90;;;;;;5073390;28;20028;-39
2023/10/09 02:46:20;;;;;;;15.70;7.78;;;16.50;99.90;;;;;;5074482;28;20032;-38
2023/10/09 02:48:52;;;;;;;21.25;8.48;;;16.50;99.90;;;;;;5060548;28;20036;-43
2023/10/09 02:51:32;;;;;;;16.10;9.35;;;16.60;99.90;;;;;;5068076;28;20428;-54
2023/10/09 02:56:54;;;;;;;15.70;8.40;;;16.60;99.90;;;;;;5065626;28;20035;-39
2023/10/09 02:59:21;;;;;;;11.30;7.63;;;16.60;99.90;;;;;;5069614;28;20520;-38
2023/10/09 03:01:48;;;;;;;10.75;7.40;;;16.60;99.90;;;;;;5070539;28;20120;-39
2023/10/09 03:04:15;;;;;;;14.63;7.55;;;16.60;99.90;;;;;;5061161;28;20035;-38
2023/10/09 03:06:59;;;;;;;7.15;5.15;;;16.60;99.90;;;;;;5058242;28;20017;-38
2023/10/09 03:09:28;;;;;;;15.18;7.18;;;16.60;99.90;;;;;;5054378;28;20039;-42
2023/10/09 03:12:00;;;;;;;12.05;6.97;;;16.60;99.90;;;;;;5064906;28;20075;-40
2023/10/09 03:14:26;;;;;;;13.48;7.30;;;16.70;99.90;;;;;;5052800;28;20033;-39
2023/10/09 03:16:59;;;;;;;10.35;6.50;;;16.70;99.90;;;;;;5053914;28;20063;-42
2023/10/09 03:19:28;;;;;;;12.95;7.85;;;16.60;99.90;;;;;;5053892;28;20048;-42
2023/10/09 03:21:58;;;;;;;14.27;6.70;;;16.70;99.90;;;;;;5057365;28;20059;-39
2023/10/09 03:24:33;;;;;;;14.85;7.53;;;16.60;99.90;;;;;;5055139;28;20029;-39
2023/10/09 03:26:59;;;;;;;16.15;7.18;;;16.70;99.90;;;;;;5061141;28;20385;-39
2023/10/09 03:29:27;;;;;;;13.57;6.30;;;16.70;99.90;;;;;;5066332;28;20029;-41
2023/10/09 03:31:55;;;;;;;17.45;8.27;;;16.70;99.90;;;;;;5071172;28;20069;-41
2023/10/09 03:34:20;;;;;;;20.85;8.13;;;16.70;99.90;;;;;;5054573;28;20519;-40
2023/10/09 03:36:47;;;;;;;18.02;7.93;;;16.70;99.90;;;;;;5062273;28;20063;-41
2023/10/09 03:42:04;;;;;;;12.98;6.93;;;16.70;99.90;;;;;;5053940;28;20366;-41
2023/10/09 03:44:35;;;;;;;19.33;7.15;;;16.70;99.90;;;;;;5059590;28;20029;-39
2023/10/09 03:47:01;;;;;;;13.07;6.70;;;16.70;99.90;;;;;;5063425;28;20029;-42
2023/10/09 03:49:29;;;;;;;18.90;6.97;;;16.60;99.90;;;;;;5054871;28;20052;-38
2023/10/09 03:51:55;;;;;;;17.77;7.18;;;16.60;99.90;;;;;;5055050;28;20024;-40
2023/10/09 03:54:22;;;;;;;14.93;6.93;;;16.60;99.90;;;;;;5066652;28;20021;-40
2023/10/09 03:56:51;;;;;;;11.07;6.63;;;16.70;99.90;;;;;;5053731;28;20029;-51
2023/10/09 03:59:20;;;;;;;18.35;6.80;;;16.70;99.90;;;;;;5053931;28;20503;-42
2023/10/09 04:01:48;;;;;;;14.27;6.40;;;16.70;99.90;;;;;;5061065;28;20028;-38
2023/10/09 04:04:14;;;;;;;11.18;6.72;;;16.70;99.90;;;;;;5059431;28;20025;-38
2023/10/09 04:06:40;;;;;;;11.45;5.70;;;16.80;99.90;;;;;;5053232;28;20044;-38
2023/10/09 04:12:35;;;;;;;9.75;5.45;;;16.80;99.90;;;;;;5053836;28;20041;-38
2023/10/09 04:14:36;;;;;;;12.95;6.72;;;16.80;99.90;;;;;;5045889;28;20485;-44
2023/10/09 04:20:14;;;;;;;11.13;6.22;;;16.80;99.90;;;;;;5056395;28;20044;-39
2023/10/09 04:25:42;;;;;;;10.27;6.35;;;16.90;99.90;;;;;;5042753;28;20112;-39
2023/10/09 04:30:53;;;;;;;12.27;5.55;;;16.90;99.90;;;;;;5065027;28;20511;-39
2023/10/09 04:33:40;;;;;;;11.52;5.07;;;16.90;99.90;;;;;;5071376;28;20029;-41
2023/10/09 04:46:44;;;;;;;16.65;5.53;;;17.00;99.90;;;;;;5072329;28;20032;-54
2023/10/09 04:49:29;;;;;;;12.13;5.60;;;17.00;99.90;;;;;;5072964;28;20025;-54
2023/10/09 04:52:18;;;;;;;8.45;4.88;;;17.10;99.90;;;;;;5075905;28;20408;-54
2023/10/09 04:57:29;;;;;;;10.00;4.80;;;17.10;99.90;;;;;;5066406;28;20043;-50
2023/10/09 04:59:58;;;;;;;13.02;5.90;;;17.10;99.90;;;;;;5075813;28;20044;-53
2023/10/09 05:02:24;;;;;;;10.15;4.82;;;17.10;99.90;;;;;;5075763;28;20032;-53
2023/10/09 05:05:16;;;;;;;10.02;5.80;;;17.10;99.90;;;;;;5076259;28;20027;-53
2023/10/09 05:08:16;;;;;;;9.32;5.63;;;17.10;99.90;;;;;;5075211;28;20044;-53
2023/10/09 05:10:25;;;;;;;9.15;5.80;;;17.20;99.90;;;;;;5074557;28;20115;-53
2023/10/09 05:12:57;;;;;;;11.07;5.95;;;17.20;99.90;;;;;;5073613;28;20032;-51
2023/10/09 05:15:29;;;;;;;13.27;6.00;;;17.20;99.90;;;;;;5075782;28;20511;-50
2023/10/09 05:18:09;;;;;;;14.35;6.15;;;17.20;99.90;;;;;;5074439;28;20489;-51
2023/10/09 05:23:25;;;;;;;11.65;5.15;;;17.10;99.90;;;;;;5076807;28;20536;-54
2023/10/09 05:25:55;;;;;;;13.38;5.57;;;17.10;99.90;;;;;;5084027;28;20424;-49
2023/10/09 05:31:08;;;;;;;14.07;5.75;;;17.10;99.90;;;;;;5056732;28;20472;-53
2023/10/09 05:33:36;;;;;;;10.30;5.28;;;17.20;99.90;;;;;;5073204;28;20024;-53
2023/10/09 05:38:58;;;;;;;11.13;4.93;;;17.20;99.90;;;;;;5085498;28;20123;-51
2023/10/09 05:41:31;;;;;;;11.43;6.72;;;17.20;99.90;;;;;;5083663;28;20416;-56
2023/10/09 05:49:46;;;;;;;13.43;5.28;;;17.20;99.90;;;;;;5087634;28;20047;-53
2023/10/09 06:03:45;;;;;;;6.72;4.38;;;17.40;99.90;;;;;;5077311;28;20085;-52
2023/10/09 06:06:18;;;;;;;9.18;4.28;;;17.40;99.90;;;;;;5078229;28;20431;-53
2023/10/09 06:14:04;;;;;;;7.78;4.47;;;17.60;99.90;;;;;;5076503;28;20048;-52
2023/10/09 06:19:11;;;;;;;10.55;5.65;;;17.50;99.90;;;;;;5083619;28;20046;-52
2023/10/09 06:24:14;;;;;;;9.63;4.95;;;17.60;99.90;;;;;;5074159;28;20115;-54
2023/10/09 06:26:51;;;;;;;7.97;4.55;;;17.60;99.90;;;;;;5074793;28;20078;-53
2023/10/09 06:29:35;;;;;;;9.63;4.78;;;17.60;99.90;;;;;;5072999;28;20385;-53
2023/10/09 06:34:51;;;;;;;10.25;4.55;;;17.60;99.90;;;;;;5072644;28;20117;-53
2023/10/09 06:47:41;;;;;;;10.43;4.25;;;17.60;99.90;;;;;;5054759;28;20094;-44
2023/10/09 06:56:01;;;;;;;11.60;4.63;;;17.60;99.90;;;;;;5071046;28;20036;-40
2023/10/09 06:58:27;;;;;;;8.82;3.83;;;17.60;99.90;;;;;;5074061;28;20029;-39
2023/10/09 07:03:32;;;;;;;11.65;4.35;;;17.70;99.90;;;;;;5066802;28;20385;-39
2023/10/09 07:15:01;;;;;;;10.43;4.80;;;17.80;99.90;;;;;;5072280;28;20040;-40
2023/10/09 07:20:15;;;;;;;8.10;4.40;;;17.80;99.90;;;;;;5085631;28;20020;-39
2023/10/09 07:22:56;;;;;;;7.95;4.72;;;17.90;99.90;;;;;;5064877;28;20040;-38
2023/10/09 07:25:40;;;;;;;14.13;5.35;;;17.80;99.90;;;;;;5053466;28;20029;-41
2023/10/09 07:28:19;;;;;;;9.55;4.88;;;17.80;99.90;;;;;;5054199;28;20036;-42
2023/10/09 07:30:56;;;;;;;11.43;5.70;;;17.90;99.90;;;;;;5053437;28;20075;-39
2023/10/09 07:36:12;;;;;;;11.80;5.13;;;17.90;99.90;;;;;;5102188;28;20074;-37
2023/10/09 07:38:38;;;;;;;12.80;4.85;;;17.90;99.90;;;;;;5089920;28;20032;-37
2023/10/09 07:43:45;;;;;;;14.00;5.35;;;18.00;99.90;;;;;;5091286;28;20028;-38
2023/10/09 07:49:12;;;;;;;9.45;5.25;;;18.10;99.90;;;;;;5092248;28;20098;-38
2023/10/09 07:51:43;;;;;;;14.02;5.38;;;18.10;99.90;;;;;;5096093;28;20488;-38
2023/10/09 07:54:14;;;;;;;10.75;5.40;;;18.10;99.90;;;;;;5100430;28;20070;-37
2023/10/09 07:56:41;;;;;;;6.47;4.45;;;18.10;99.90;;;;;;5102308;28;20525;-38
2023/10/09 07:59:13;;;;;;;16.20;5.00;;;18.20;99.90;;;;;;5098299;28;20111;-39
2023/10/09 08:01:52;;;;;;;11.70;5.15;;;18.20;99.90;;;;;;5095509;28;20024;-37
2023/10/09 08:04:37;;;;;;;12.30;4.78;;;18.20;99.90;;;;;;5094165;28;20149;-38
2023/10/09 08:07:09;;;;;;;12.77;4.70;;;18.30;99.90;;;;;;5105064;28;20099;-40
2023/10/09 08:09:46;;;;;;;9.27;5.20;;;18.30;99.90;;;;;;5090046;28;20021;-38
2023/10/09 08:12:39;;;;;;;9.90;5.23;;;18.40;99.90;;;;;;5078229;28;20102;-37
2023/10/09 08:17:53;;;;;;;6.90;4.57;;;18.40;99.90;;;;;;5093279;28;20511;-47
2023/10/09 08:20:36;;;;;;;8.85;4.30;;;18.40;99.90;;;;;;5100987;28;20096;-38
2023/10/09 08:23:04;;;;;;;9.55;4.38;;;18.50;99.90;;;;;;5096169;28;20039;-42
2023/10/09 08:25:34;;;;;;;9.77;4.72;;;18.60;99.90;;;;;;5094024;28;20086;-38
2023/10/09 08:28:45;;;;;;;8.95;4.65;;;18.70;99.90;;;;;;5069316;28;20107;-38
2023/10/09 08:36:01;;;;;;;15.15;5.82;;;18.90;99.90;;;;;;5077419;28;20052;-39
2023/10/09 08:38:33;;;;;;;9.80;5.47;;;18.90;99.90;;;;;;5087098;28;20412;-41
2023/10/09 08:41:15;;;;;;;14.90;5.80;;;19.00;99.90;;;;;;5069900;28;20059;-39
2023/10/09 08:43:46;;;;;;;12.30;4.93;;;19.10;99.90;;;;;;5081823;28;20078;-37
2023/10/09 08:46:17;;;;;;;14.18;5.03;;;19.10;99.90;;;;;;5075397;28;20489;-38
2023/10/09 08:48:45;;;;;;;10.85;5.13;;;19.20;99.90;;;;;;5075810;28;20032;-52
2023/10/09 08:51:10;;;;;;;14.40;4.38;;;19.20;99.90;;;;;;5072377;28;20032;-39
2023/10/09 08:53:42;;;;;;;9.45;4.90;;;19.30;99.90;;;;;;5074577;28;20096;-39
2023/10/09 08:56:09;;;;;;;17.90;4.78;;;19.40;99.90;;;;;;5072330;28;20055;-41
2023/10/09 08:58:38;;;;;;;7.30;4.28;;;19.50;99.90;;;;;;5074823;28;20021;-45
2023/10/09 09:01:04;;;;;;;12.95;5.38;;;19.60;99.90;;;;;;5074508;28;20028;-38
2023/10/09 09:03:43;;;;;;;12.63;4.68;;;19.60;99.90;;;;;;5056821;28;20021;-38
2023/10/09 09:06:09;;;;;;;8.60;4.13;;;19.70;99.90;;;;;;5072529;28;20020;-52
2023/10/09 09:08:38;;;;;;;10.48;4.00;;;19.70;99.90;;;;;;5075126;28;20028;-37
2023/10/09 09:11:11;;;;;;;10.70;4.03;;;19.60;99.90;;;;;;5075211;28;20385;-38
2023/10/09 09:13:50;;;;;;;11.40;4.45;;;19.70;99.90;;;;;;5074999;28;20473;-38
2023/10/09 09:16:29;;;;;;;8.18;3.83;;;19.80;99.90;;;;;;5074926;28;20492;-50
2023/10/09 09:21:43;;;;;;;11.25;4.43;;;19.80;99.90;;;;;;5074896;28;20063;-52
2023/10/09 09:26:58;;;;;;;10.65;3.97;;;19.80;99.90;;;;;;5074758;28;20193;-58
2023/10/09 09:29:54;;;;;;;9.45;4.10;;;19.80;99.90;;;;;;5074660;28;20024;-60
2023/10/09 09:32:38;;;;;;;6.20;4.15;;;19.80;99.90;;;;;;5074426;28;20052;-52
2023/10/09 09:35:05;;;;;;;7.80;4.63;;;19.90;99.90;;;;;;5074571;28;20020;-37
2023/10/09 09:38:02;;;;;;;;;;;;;;;;;;;;;
2023/10/09 09:40:41;;;;;;;9.57;4.15;;;19.90;99.90;;;;;;5074744;28;20021;-39
2023/10/09 09:43:05;;;;;;;12.68;4.50;;;19.90;99.90;;;;;;5071395;28;20032;-38
2023/10/09 09:45:37;;;;;;;6.57;3.38;;;20.00;99.90;;;;;;5074395;28;20103;-37
2023/10/09 09:48:06;;;;;;;12.50;4.50;;;20.00;99.90;;;;;;5074613;28;20024;-37
2023/10/09 09:50:33;;;;;;;9.00;3.60;;;20.10;99.90;;;;;;5074526;28;20020;-39
2023/10/09 09:52:59;;;;;;;6.95;3.67;;;20.10;99.90;;;;;;5074384;28;20191;-42
2023/10/09 09:55:32;;;;;;;11.93;4.20;;;20.10;99.90;;;;;;5073199;28;20027;-38
2023/10/09 09:57:58;;;;;;;7.38;3.75;;;19.90;99.90;;;;;;5074156;28;20020;-38
2023/10/09 10:00:42;;;;;;;8.27;3.85;;;19.90;99.90;;;;;;5074235;28;20024;-54
2023/10/09 10:03:27;;;;;;;10.98;3.60;;;20.10;99.90;;;;;;5074089;28;20059;-38
2023/10/09 10:05:56;;;;;;;6.65;4.10;;;20.20;99.90;;;;;;5072740;28;20485;-39
2023/10/09 10:08:32;;;;;;;10.38;4.07;;;20.20;99.90;;;;;;5073894;28;20024;-38
2023/10/09 10:11:04;;;;;;;13.10;4.13;;;20.20;99.90;;;;;;5074061;28;20431;-42
2023/10/09 10:13:42;;;;;;;9.63;4.15;;;20.30;99.90;;;;;;5073836;28;20020;-38
2023/10/09 10:18:59;;;;;;;9.75;3.53;;;20.20;99.90;;;;;;5074059;28;20025;-40
2023/10/09 10:24:06;;;;;;;25.92;4.32;;;20.20;99.90;;;;;;5073877;28;20033;-48
2023/10/09 10:26:33;;;;;;;8.40;3.70;;;20.30;99.90;;;;;;5073656;28;20028;-50
2023/10/09 10:29:23;;;;;;;9.65;4.00;;;20.30;99.90;;;;;;5073800;28;20407;-55
2023/10/09 10:32:08;;;;;;;6.78;3.85;;;20.20;99.90;;;;;;5072045;28;20055;-46
2023/10/09 10:34:58;;;;;;;19.63;3.92;;;20.30;99.90;;;;;;5073772;28;20054;-52
2023/10/09 10:37:38;;;;;;;12.32;3.80;;;20.30;99.90;;;;;;5073481;28;20477;-51
2023/10/09 10:40:13;;;;;;;8.48;3.67;;;20.40;99.90;;;;;;5073297;28;20076;-50
2023/10/09 10:43:09;;;;;;;14.43;4.57;;;20.40;99.90;;;;;;5071622;28;20455;-53
2023/10/09 10:45:43;;;;;;;10.03;4.77;;;20.50;99.90;;;;;;5073908;28;20028;-51
2023/10/09 10:48:37;;;;;;;10.70;3.42;;;20.40;99.90;;;;;;5073267;28;20301;-53
2023/10/09 10:51:04;;;;;;;10.80;4.32;;;20.50;99.90;;;;;;5073421;28;20032;-52
2023/10/09 10:53:47;;;;;;;6.63;3.97;;;20.60;99.90;;;;;;5072967;28;20056;-53
2023/10/09 11:01:53;;;;;;;19.77;4.47;;;20.40;99.90;;;;;;5073271;28;20117;-51
2023/10/09 11:15:46;;;;;;;10.90;4.07;;;20.20;99.90;;;;;;5073185;28;20111;-58
2023/10/09 11:18:20;;;;;;;12.43;4.00;;;20.30;99.90;;;;;;5072849;28;20086;-50
2023/10/09 11:21:22;;;;;;;8.55;3.33;;;20.30;99.90;;;;;;5073053;28;20465;-53
2023/10/09 11:24:24;;;;;;;10.32;2.95;;;20.30;99.90;;;;;;5072518;28;20367;-52
2023/10/09 11:26:40;;;;;;;9.60;3.35;;;20.30;99.90;;;;;;5070135;28;20043;-51
2023/10/09 11:29:13;;;;;;;7.35;3.40;;;20.20;99.90;;;;;;5054820;28;20443;-51
2023/10/09 11:32:07;;;;;;;7.63;3.20;;;20.40;99.90;;;;;;5072531;28;20102;-49
2023/10/09 11:34:37;;;;;;;7.97;3.63;;;20.60;99.90;;;;;;5072641;28;20531;-51
2023/10/09 11:37:10;;;;;;;14.55;4.63;;;20.70;99.90;;;;;;5072652;28;20473;-50
2023/10/09 11:39:36;;;;;;;4.32;2.92;;;20.70;99.90;;;;;;5072578;28;20025;-48
2023/10/09 11:42:07;;;;;;;5.90;3.47;;;20.80;99.90;;;;;;5072505;28;20082;-52
2023/10/09 11:44:44;;;;;;;8.18;4.60;;;20.60;99.90;;;;;;5072777;28;20024;-52
2023/10/09 11:53:33;;;;;;;8.10;3.80;;;20.40;99.90;;;;;;5072702;28;20043;-53
2023/10/09 11:55:25;;;;;;;9.48;3.85;;;20.50;99.90;;;;;;5058791;28;20420;-52
2023/10/09 11:57:51;;;;;;;10.18;3.58;;;20.60;99.90;;;;;;5072632;28;20024;-49
2023/10/09 12:00:29;;;;;;;5.90;3.20;;;20.60;99.90;;;;;;5072401;28;20469;-52
2023/10/09 12:02:55;;;;;;;7.55;4.47;;;20.60;99.90;;;;;;5072419;28;20447;-51
2023/10/09 12:05:21;;;;;;;11.45;4.43;;;20.50;99.90;;;;;;5072304;28;20021;-52
2023/10/09 12:07:54;;;;;;;10.52;3.40;;;20.60;99.90;;;;;;5072337;28;20396;-51
2023/10/09 12:10:26;;;;;;;7.50;3.63;;;20.70;99.90;;;;;;5072649;28;20028;-53
2023/10/09 12:12:52;;;;;;;10.88;3.30;;;20.90;99.90;;;;;;5072506;28;20024;-53
2023/10/09 12:15:20;;;;;;;11.13;3.77;;;20.90;99.90;;;;;;5072331;28;20591;-54
2023/10/09 12:17:47;;;;;;;9.57;3.05;;;20.70;99.90;;;;;;5072218;28;20032;-51
2023/10/09 12:20:32;;;;;;;11.15;3.25;;;20.60;99.90;;;;;;5075656;28;20020;-47
2023/10/09 12:23:06;;;;;;;13.35;3.75;;;20.70;99.90;;;;;;5058020;28;20370;-49
2023/10/09 12:25:35;;;;;;;12.93;4.13;;;20.70;99.90;;;;;;5075817;28;20103;-54
2023/10/09 12:28:02;;;;;;;8.52;4.00;;;20.70;99.90;;;;;;5075858;28;20104;-51
2023/10/09 12:30:31;;;;;;;8.55;3.55;;;20.70;99.90;;;;;;5076080;28;20025;-51
2023/10/09 12:32:57;;;;;;;6.82;2.90;;;20.70;99.90;;;;;;5075474;28;20516;-56
2023/10/09 12:35:24;;;;;;;9.07;3.83;;;20.70;99.90;;;;;;5075861;28;20082;-49
2023/10/09 12:37:56;;;;;;;7.13;3.22;;;20.60;99.90;;;;;;5075554;28;20031;-51
2023/10/09 12:40:29;;;;;;;7.90;4.10;;;20.60;99.90;;;;;;5075573;28;20021;-48
2023/10/09 12:42:55;;;;;;;14.15;4.53;;;20.60;99.90;;;;;;5075440;28;20066;-51
2023/10/09 12:45:32;;;;;;;8.48;3.70;;;20.70;99.90;;;;;;5075539;28;20086;-50
2023/10/09 12:47:59;;;;;;;18.38;5.03;;;20.60;99.90;;;;;;5075794;28;20501;-48
2023/10/09 12:50:28;;;;;;;7.22;3.70;;;20.50;99.90;;;;;;5075702;28;20025;-57
2023/10/09 12:53:06;;;;;;;11.32;3.60;;;20.30;99.90;;;;;;5075361;28;20021;-53
2023/10/09 12:55:41;;;;;;;7.93;3.80;;;20.30;99.90;;;;;;5075359;28;20024;-51
2023/10/09 12:58:15;;;;;;;13.68;4.15;;;20.20;99.90;;;;;;5075382;28;20028;-51
2023/10/09 13:00:48;;;;;;;17.52;3.90;;;20.20;99.90;;;;;;5056969;28;20106;-53
2023/10/09 13:03:17;;;;;;;7.45;3.20;;;20.20;99.90;;;;;;5075243;28;20020;-50
2023/10/09 13:05:58;;;;;;;7.40;4.05;;;20.10;99.90;;;;;;5075318;28;20029;-50
2023/10/09 13:08:35;;;;;;;7.90;3.63;;;20.10;99.90;;;;;;5075122;28;20586;-53
2023/10/09 13:11:11;;;;;;;13.32;4.07;;;20.20;99.90;;;;;;5057145;28;20028;-51
2023/10/09 13:13:46;;;;;;;7.63;3.83;;;20.10;99.90;;;;;;5075078;28;20479;-52
2023/10/09 13:16:20;;;;;;;9.43;3.53;;;20.00;99.90;;;;;;5058485;28;20025;-49
2023/10/09 13:18:52;;;;;;;17.92;3.63;;;20.00;99.90;;;;;;5075202;28;20051;-51
2023/10/09 13:21:23;;;;;;;6.63;2.92;;;19.90;99.90;;;;;;5074909;28;20366;-53
2023/10/09 13:23:50;;;;;;;13.00;4.07;;;19.90;99.90;;;;;;5074801;28;20028;-51
2023/10/09 13:26:28;;;;;;;9.00;3.67;;;19.90;99.90;;;;;;5074977;28;20020;-50
2023/10/09 13:28:54;;;;;;;13.35;3.92;;;19.90;99.90;;;;;;5074761;28;20021;-48
2023/10/09 13:31:21;;;;;;;11.07;3.40;;;19.90;99.90;;;;;;5074390;28;20016;-53
2023/10/09 13:33:48;;;;;;;12.43;4.22;;;19.90;99.90;;;;;;5074601;28;20032;-51
2023/10/09 13:36:19;;;;;;;9.65;4.10;;;19.90;99.90;;;;;;5074596;28;20473;-49
2023/10/09 13:38:45;;;;;;;7.95;3.40;;;19.90;99.90;;;;;;5074534;28;20024;-50
2023/10/09 13:41:17;;;;;;;5.23;2.33;;;19.90;99.90;;;;;;5074849;28;20069;-53
2023/10/09 13:43:43;;;;;;;9.60;3.88;;;19.70;99.90;;;;;;5074656;28;20477;-53
2023/10/09 13:46:12;;;;;;;10.65;4.13;;;19.70;99.90;;;;;;5074324;28;20028;-51
2023/10/09 13:48:43;;;;;;;10.55;3.88;;;19.70;99.90;;;;;;5074360;28;20067;-52
2023/10/09 13:51:18;;;;;;;14.82;3.38;;;19.70;99.90;;;;;;5074497;28;20028;-51
2023/10/09 13:53:47;;;;;;;12.98;3.72;;;19.90;99.90;;;;;;5074141;28;20396;-52
2023/10/09 13:56:20;;;;;;;8.40;3.67;;;19.90;99.90;;;;;;5074415;28;20385;-51
2023/10/09 13:58:54;;;;;;;9.77;4.47;;;20.10;99.90;;;;;;5056296;28;20374;-50
2023/10/09 14:01:27;;;;;;;8.50;4.28;;;20.10;99.90;;;;;;5074011;28;20054;-50
2023/10/09 14:04:00;;;;;;;7.53;3.17;;;20.20;99.90;;;;;;5074106;28;20400;-50
2023/10/09 14:06:30;;;;;;;13.20;4.00;;;20.10;99.90;;;;;;5073951;28;20044;-53
2023/10/09 14:11:45;;;;;;;16.25;4.13;;;20.00;99.90;;;;;;5074066;28;20468;-53
2023/10/09 14:14:11;;;;;;;13.10;3.53;;;20.00;99.90;;;;;;5073749;28;20051;-51
2023/10/09 14:16:37;;;;;;;10.80;3.50;;;20.00;99.90;;;;;;5073635;28;20021;-52
2023/10/09 14:19:07;;;;;;;7.85;4.30;;;20.10;99.90;;;;;;5056179;28;20028;-53
2023/10/09 14:21:37;;;;;;;12.27;3.90;;;20.10;99.90;;;;;;5073868;28;20105;-51
2023/10/09 14:24:03;;;;;;;12.57;4.30;;;20.10;99.90;;;;;;5073586;28;20366;-64
2023/10/09 14:26:29;;;;;;;12.20;4.25;;;20.20;99.90;;;;;;5073581;28;20102;-49
2023/10/09 14:28:59;;;;;;;9.55;4.57;;;20.30;99.90;;;;;;5073449;28;20048;-50
2023/10/09 14:31:28;;;;;;;13.82;4.30;;;20.40;99.90;;;;;;5073211;28;20106;-50
2023/10/09 14:33:56;;;;;;;6.40;3.40;;;20.40;99.90;;;;;;5073694;28;20116;-49
2023/10/09 14:36:22;;;;;;;8.80;4.05;;;20.30;99.90;;;;;;5073359;28;20099;-51
2023/10/09 14:38:55;;;;;;;11.15;4.30;;;20.10;99.90;;;;;;5073392;28;20028;-50
2023/10/09 14:41:25;;;;;;;5.90;3.80;;;20.10;99.90;;;;;;5072823;28;20032;-49
2023/10/09 14:43:52;;;;;;;10.25;4.30;;;20.10;99.90;;;;;;5073113;28;20027;-52
2023/10/09 14:46:24;;;;;;;14.90;5.25;;;20.10;99.90;;;;;;5073222;28;20409;-53
2023/10/09 14:48:52;;;;;;;15.48;4.15;;;20.10;99.90;;;;;;5055021;28;20292;-51
2023/10/09 14:51:26;;;;;;;12.07;3.80;;;20.10;99.90;;;;;;5055129;28;20058;-50
2023/10/09 14:53:53;;;;;;;7.57;4.05;;;20.00;99.90;;;;;;5072956;28;20021;-53
2023/10/09 14:56:28;;;;;;;8.10;3.95;;;20.00;99.90;;;;;;5072935;28;20021;-54
2023/10/09 14:59:00;;;;;;;14.73;4.47;;;20.00;99.90;;;;;;5073110;28;20465;-52
2023/10/09 15:01:30;;;;;;;13.20;4.07;;;19.80;99.90;;;;;;5073110;28;20481;-51
2023/10/09 15:03:57;;;;;;;9.07;3.65;;;19.80;99.90;;;;;;5073344;28;20023;-50
2023/10/09 15:06:30;;;;;;;6.97;3.50;;;19.80;99.90;;;;;;5073051;28;20485;-50
2023/10/09 15:08:58;;;;;;;13.00;3.63;;;19.70;99.90;;;;;;5072894;28;20040;-52
2023/10/09 15:11:25;;;;;;;11.45;3.90;;;19.70;99.90;;;;;;5072756;28;20016;-50
2023/10/09 15:13:53;;;;;;;9.18;4.13;;;19.70;99.90;;;;;;5072853;28;20039;-53
2023/10/09 15:16:21;;;;;;;11.27;4.45;;;19.60;99.90;;;;;;5072832;28;20024;-51
2023/10/09 15:18:52;;;;;;;14.15;4.63;;;19.60;99.90;;;;;;5072768;28;20496;-52
2023/10/09 15:21:26;;;;;;;12.98;3.60;;;19.50;99.90;;;;;;5072783;28;20020;-51
2023/10/09 15:23:55;;;;;;;10.18;4.30;;;19.50;99.90;;;;;;5072659;28;20020;-52
2023/10/09 15:26:24;;;;;;;13.30;4.28;;;19.60;99.90;;;;;;5072686;28;20381;-54
2023/10/09 15:28:50;;;;;;;7.10;3.92;;;19.60;99.90;;;;;;5072934;28;20020;-54
2023/10/09 15:31:16;;;;;;;12.65;4.45;;;19.60;99.90;;;;;;5072606;28;20385;-49
2023/10/09 15:33:42;;;;;;;11.20;4.60;;;19.60;99.90;;;;;;5072311;28;20493;-54
2023/10/09 15:36:20;;;;;;;9.30;5.13;;;19.60;99.90;;;;;;5072573;28;20024;-51
2023/10/09 15:38:49;;;;;;;11.85;4.55;;;19.60;99.90;;;;;;5072592;28;20104;-50
2023/10/09 15:41:16;;;;;;;13.52;4.30;;;19.60;99.90;;;;;;5072862;28;20525;-55
2023/10/09 15:43:44;;;;;;;8.75;4.10;;;19.70;99.90;;;;;;5072414;28;20036;-53
2023/10/09 15:46:16;;;;;;;12.77;5.10;;;19.70;99.90;;;;;;5072784;28;20039;-48
2023/10/09 15:48:43;;;;;;;10.95;4.32;;;19.60;99.90;;;;;;5072360;28;20036;-53
2023/10/09 15:51:15;;;;;;;10.40;4.05;;;19.60;99.90;;;;;;5072470;28;20508;-54
2023/10/09 15:53:45;;;;;;;12.23;4.57;;;19.50;99.90;;;;;;5071135;28;20056;-45
2023/10/09 15:56:12;;;;;;;9.98;4.32;;;19.60;99.90;;;;;;5076362;28;20077;-39
2023/10/09 15:58:45;;;;;;;11.07;3.83;;;19.60;99.90;;;;;;5076526;28;20036;-39